createdAt,value
2023-04-07T00:00:32.527Z,12.52
2023-04-07T00:02:59.600Z,11.90
2023-04-07T00:05:26.234Z,9.82
2023-04-07T00:07:56.809Z,11.02
2023-04-07T00:10:25.228Z,12.20
2023-04-07T00:12:51.952Z,10.50
2023-04-07T00:15:18.558Z,8.27
2023-04-07T00:17:45.291Z,11.80
2023-04-07T00:20:12.274Z,12.18
2023-04-07T00:22:38.778Z,10.32
2023-04-07T00:25:06.021Z,13.20
2023-04-07T00:27:32.531Z,15.77
2023-04-07T00:29:59.024Z,10.07
2023-04-07T00:32:25.631Z,13.00
2023-04-07T00:34:52.173Z,15.85
2023-04-07T00:37:19.286Z,16.42
2023-04-07T00:39:46.706Z,14.40
2023-04-07T00:42:13.580Z,12.48
2023-04-07T00:44:40.467Z,13.18
2023-04-07T00:47:06.968Z,14.18
2023-04-07T00:49:33.464Z,12.68
2023-04-07T00:52:01.025Z,10.73
2023-04-07T00:54:27.646Z,12.65
2023-04-07T00:56:54.200Z,10.18
2023-04-07T00:59:21.945Z,10.88
2023-04-07T01:01:54.358Z,13.60
2023-04-07T01:04:31.748Z,14.02
2023-04-07T01:07:06.276Z,11.13
2023-04-07T01:09:42.843Z,12.57
2023-04-07T01:12:28.931Z,11.68
2023-04-07T01:15:00.977Z,13.77
2023-04-07T01:17:39.220Z,13.50
2023-04-07T01:20:08.397Z,13.32
2023-04-07T01:22:43.523Z,13.30
2023-04-07T01:28:14.097Z,11.05
2023-04-07T01:30:44.153Z,12.70
2023-04-07T01:33:12.529Z,14.13
2023-04-07T01:35:41.087Z,12.85
2023-04-07T01:38:09.344Z,12.07
2023-04-07T01:40:38.567Z,13.45
2023-04-07T01:43:06.420Z,14.95
2023-04-07T01:45:35.574Z,18.45
2023-04-07T01:50:30.346Z,13.35
2023-04-07T01:52:57.404Z,12.25
2023-04-07T01:55:24.950Z,17.52
2023-04-07T01:58:09.461Z,13.00
2023-04-07T02:00:39.655Z,16.95
2023-04-07T02:03:21.090Z,14.95
2023-04-07T02:05:50.391Z,17.20
2023-04-07T02:08:20.075Z,14.13
2023-04-07T02:10:49.137Z,17.25
2023-04-07T02:13:18.942Z,14.02
2023-04-07T02:15:48.654Z,15.48
2023-04-07T02:18:19.974Z,18.77
2023-04-07T02:20:48.577Z,12.98
2023-04-07T02:23:16.248Z,16.45
2023-04-07T02:25:42.827Z,15.05
2023-04-07T02:28:09.307Z,14.02
2023-04-07T02:30:36.429Z,16.15
2023-04-07T02:33:02.909Z,14.93
2023-04-07T02:35:29.496Z,14.38
2023-04-07T02:37:55.994Z,15.55
2023-04-07T02:40:22.506Z,11.65
2023-04-07T02:42:48.930Z,15.35
2023-04-07T02:45:16.100Z,22.30
2023-04-07T02:47:42.726Z,16.52
2023-04-07T02:50:09.761Z,15.02
2023-04-07T02:52:36.323Z,14.32
2023-04-07T02:55:09.526Z,15.27
2023-04-07T02:57:36.053Z,16.90
2023-04-07T03:00:06.016Z,13.38
2023-04-07T03:02:49.734Z,13.25
2023-04-07T03:05:17.461Z,14.30
2023-04-07T03:07:43.966Z,16.13
2023-04-07T03:10:11.180Z,14.85
2023-04-07T03:12:37.848Z,14.30
2023-04-07T03:15:04.495Z,20.23
2023-04-07T03:17:31.521Z,16.20
2023-04-07T03:19:58.115Z,13.27
2023-04-07T03:22:26.371Z,10.30
2023-04-07T03:24:53.757Z,12.05
2023-04-07T03:27:22.725Z,21.33
2023-04-07T03:29:51.206Z,16.17
2023-04-07T03:32:17.868Z,13.63
2023-04-07T03:34:44.463Z,14.35
2023-04-07T03:37:12.444Z,12.93
2023-04-07T03:39:41.083Z,15.35
2023-04-07T03:42:21.141Z,22.65
2023-04-07T03:44:48.961Z,14.52
2023-04-07T03:47:15.441Z,12.35
2023-04-07T03:49:41.866Z,13.63
2023-04-07T03:52:08.331Z,15.52
2023-04-07T03:54:35.511Z,9.82
2023-04-07T03:57:02.847Z,11.55
2023-04-07T03:59:32.856Z,12.00
2023-04-07T04:02:03.147Z,14.25
2023-04-07T04:04:30.535Z,12.82
2023-04-07T04:06:57.516Z,16.30
2023-04-07T04:09:35.102Z,12.15
2023-04-07T04:12:01.613Z,14.20
2023-04-07T04:14:30.309Z,9.25
2023-04-07T04:17:00.673Z,17.70
2023-04-07T04:19:34.966Z,12.95
2023-04-07T04:22:07.294Z,11.13
2023-04-07T04:24:41.760Z,12.55
2023-04-07T04:27:08.512Z,17.05
2023-04-07T04:29:35.998Z,12.55
2023-04-07T04:32:05.445Z,13.77
2023-04-07T04:34:31.979Z,11.50
2023-04-07T04:36:59.074Z,11.85
2023-04-07T04:39:25.944Z,14.18
2023-04-07T04:41:52.977Z,11.20
2023-04-07T04:46:48.795Z,11.45
2023-04-07T04:49:16.325Z,9.55
2023-04-07T04:51:43.327Z,9.20
2023-04-07T04:54:16.546Z,10.75
2023-04-07T04:56:43.995Z,14.13
2023-04-07T04:59:11.008Z,17.17
2023-04-07T05:01:57.910Z,13.70
2023-04-07T05:04:24.665Z,19.38
2023-04-07T05:06:59.553Z,9.77
2023-04-07T05:09:28.667Z,14.27
2023-04-07T05:11:55.774Z,8.63
2023-04-07T05:14:23.195Z,13.00
2023-04-07T05:16:55.254Z,11.13
2023-04-07T05:19:27.219Z,8.50
2023-04-07T05:21:57.216Z,8.27
2023-04-07T05:24:27.349Z,7.07
2023-04-07T05:26:57.785Z,6.97
2023-04-07T05:29:25.573Z,6.43
2023-04-07T05:31:53.028Z,8.88
2023-04-07T05:34:21.624Z,9.52
2023-04-07T05:36:53.012Z,6.55
2023-04-07T05:39:21.089Z,8.38
2023-04-07T05:41:49.806Z,10.20
2023-04-07T05:44:17.198Z,10.90
2023-04-07T05:46:45.057Z,5.82
2023-04-07T05:49:19.527Z,8.52
2023-04-07T05:51:51.361Z,8.02
2023-04-07T05:54:19.487Z,10.73
2023-04-07T05:56:46.134Z,10.15
2023-04-07T05:59:13.073Z,6.90
2023-04-07T06:01:39.782Z,9.63
2023-04-07T06:04:06.490Z,9.80
2023-04-07T06:06:33.131Z,10.70
2023-04-07T06:08:59.695Z,10.07
2023-04-07T06:11:27.547Z,7.50
2023-04-07T06:13:54.039Z,10.32
2023-04-07T06:16:20.754Z,11.55
2023-04-07T06:18:47.373Z,5.18
2023-04-07T06:21:13.817Z,8.80
2023-04-07T06:23:40.380Z,9.65
2023-04-07T06:26:13.485Z,8.68
2023-04-07T06:28:41.065Z,5.93
2023-04-07T06:31:08.802Z,7.03
2023-04-07T06:33:36.602Z,8.45
2023-04-07T06:36:03.169Z,8.18
2023-04-07T06:38:29.724Z,9.80
2023-04-07T06:40:56.098Z,6.78
2023-04-07T06:43:22.561Z,5.95
2023-04-07T06:45:54.878Z,10.80
2023-04-07T06:48:21.552Z,11.20
2023-04-07T06:50:51.820Z,8.77
2023-04-07T06:53:18.600Z,10.98
2023-04-07T06:55:45.453Z,9.88
2023-04-07T06:58:12.153Z,8.75
2023-04-07T07:00:38.659Z,7.07
2023-04-07T07:03:05.292Z,8.57
2023-04-07T07:05:32.100Z,9.18
2023-04-07T07:07:58.493Z,7.53
2023-04-07T07:10:25.190Z,11.40
2023-04-07T07:12:52.027Z,9.45
2023-04-07T07:15:18.664Z,10.00
2023-04-07T07:17:45.319Z,8.88
2023-04-07T07:20:11.912Z,8.10
2023-04-07T07:22:38.427Z,11.75
2023-04-07T07:25:05.287Z,7.43
2023-04-07T07:27:31.746Z,12.75
2023-04-07T07:29:58.275Z,9.52
2023-04-07T07:32:24.828Z,11.32
2023-04-07T07:34:51.338Z,13.32
2023-04-07T07:37:17.928Z,13.32
2023-04-07T07:39:44.414Z,8.65
2023-04-07T07:42:10.910Z,14.20
2023-04-07T07:44:37.413Z,8.07
2023-04-07T07:47:03.885Z,11.38
2023-04-07T07:49:34.623Z,10.48
2023-04-07T07:52:01.080Z,8.45
2023-04-07T07:54:27.550Z,9.93
2023-04-07T07:56:54.034Z,11.00
2023-04-07T07:59:21.588Z,12.95
2023-04-07T08:01:48.070Z,9.98
2023-04-07T08:04:14.629Z,8.57
2023-04-07T08:06:42.004Z,12.07
2023-04-07T08:09:08.542Z,9.75
2023-04-07T08:11:34.937Z,9.77
2023-04-07T08:14:01.420Z,10.93
2023-04-07T08:16:28.014Z,7.15
2023-04-07T08:18:54.712Z,9.38
2023-04-07T08:21:21.428Z,5.90
2023-04-07T08:23:48.262Z,9.27
2023-04-07T08:26:18.287Z,5.82
2023-04-07T08:28:44.742Z,9.55
2023-04-07T08:31:11.309Z,7.53
2023-04-07T08:33:37.790Z,7.78
2023-04-07T08:36:04.712Z,10.55
2023-04-07T08:38:31.410Z,8.13
2023-04-07T08:41:04.213Z,5.80
2023-04-07T08:43:31.426Z,12.82
2023-04-07T08:45:58.140Z,6.78
2023-04-07T08:48:29.992Z,6.20
2023-04-07T08:50:57.747Z,8.50
2023-04-07T08:53:29.485Z,7.45
2023-04-07T08:55:56.949Z,6.68
2023-04-07T08:58:24.008Z,6.43
2023-04-07T09:00:51.561Z,5.72
2023-04-07T09:03:18.475Z,8.25
2023-04-07T09:05:46.458Z,5.82
2023-04-07T09:08:13.051Z,6.60
2023-04-07T09:10:39.570Z,4.45
2023-04-07T09:13:06.339Z,8.07
2023-04-07T09:15:37.991Z,6.63
2023-04-07T09:18:05.677Z,6.03
2023-04-07T09:20:57.679Z,7.00
2023-04-07T09:23:32.483Z,10.10
2023-04-07T09:26:01.149Z,3.67
2023-04-07T09:28:43.784Z,6.80
2023-04-07T09:31:10.437Z,5.25
2023-04-07T09:33:37.259Z,4.78
2023-04-07T09:36:06.477Z,6.47
2023-04-07T09:38:38.931Z,9.75
2023-04-07T09:41:10.911Z,8.25
2023-04-07T09:43:39.144Z,6.88
2023-04-07T09:46:10.886Z,9.82
2023-04-07T09:48:37.561Z,5.82
2023-04-07T09:51:18.304Z,5.03
2023-04-07T09:53:49.978Z,10.95
2023-04-07T09:56:24.240Z,8.13
2023-04-07T09:58:54.203Z,4.32
2023-04-07T10:01:21.986Z,7.05
2023-04-07T10:03:49.272Z,3.72
2023-04-07T10:06:16.715Z,6.60
2023-04-07T10:08:44.157Z,6.38
2023-04-07T10:11:11.048Z,6.32
2023-04-07T10:13:39.923Z,4.03
2023-04-07T10:16:07.811Z,7.20
2023-04-07T10:18:36.926Z,3.55
2023-04-07T10:21:08.071Z,5.32
2023-04-07T10:23:43.730Z,8.07
2023-04-07T10:26:12.076Z,5.40
2023-04-07T10:28:43.503Z,6.15
2023-04-07T10:31:11.048Z,6.28
2023-04-07T10:33:54.791Z,4.05
2023-04-07T10:36:22.069Z,4.35
2023-04-07T10:39:06.693Z,5.68
2023-04-07T10:41:38.021Z,3.15
2023-04-07T10:44:06.752Z,4.68
2023-04-07T10:46:55.458Z,6.80
2023-04-07T10:49:22.027Z,3.20
2023-04-07T10:52:13.137Z,4.50
2023-04-07T10:54:40.504Z,6.10
2023-04-07T10:57:11.479Z,6.97
2023-04-07T10:59:40.258Z,7.43
2023-04-07T11:02:12.865Z,4.65
2023-04-07T11:04:46.835Z,2.80
2023-04-07T11:07:14.782Z,5.60
2023-04-07T11:09:41.417Z,6.40
2023-04-07T11:12:08.887Z,4.82
2023-04-07T11:14:37.630Z,3.15
2023-04-07T11:17:04.486Z,5.90
2023-04-07T11:19:32.440Z,5.82
2023-04-07T11:22:26.700Z,4.07
2023-04-07T11:24:55.793Z,8.90
2023-04-07T11:27:22.292Z,3.35
2023-04-07T11:29:48.909Z,6.32
2023-04-07T11:32:15.640Z,2.85
2023-04-07T11:34:42.942Z,5.18
2023-04-07T11:37:20.432Z,7.13
2023-04-07T11:39:57.947Z,5.32
2023-04-07T11:42:39.535Z,4.03
2023-04-07T11:45:18.358Z,8.52
2023-04-07T11:47:45.183Z,3.40
2023-04-07T11:50:13.740Z,5.75
2023-04-07T11:52:48.961Z,4.05
2023-04-07T11:55:24.155Z,3.13
2023-04-07T11:57:51.919Z,6.50
2023-04-07T12:00:19.887Z,5.53
2023-04-07T12:02:46.856Z,3.80
2023-04-07T12:05:13.697Z,7.72
2023-04-07T12:07:41.816Z,5.80
2023-04-07T12:10:22.162Z,4.05
2023-04-07T12:12:49.207Z,5.90
2023-04-07T12:15:16.694Z,6.75
2023-04-07T12:17:47.877Z,5.35
2023-04-07T12:20:15.902Z,7.10
2023-04-07T12:22:42.422Z,9.38
2023-04-07T12:25:08.972Z,5.47
2023-04-07T12:27:42.594Z,6.85
2023-04-07T12:30:10.400Z,8.20
2023-04-07T12:32:37.725Z,6.97
2023-04-07T12:35:05.227Z,6.28
2023-04-07T12:37:32.793Z,6.95
2023-04-07T12:39:59.940Z,8.23
2023-04-07T12:42:27.174Z,12.13
2023-04-07T12:44:53.641Z,7.65
2023-04-07T12:47:20.252Z,7.40
2023-04-07T12:49:48.561Z,4.13
2023-04-07T12:52:16.808Z,4.30
2023-04-07T12:54:45.287Z,6.00
2023-04-07T12:57:12.064Z,4.53
2023-04-07T12:59:38.543Z,3.80
2023-04-07T13:02:05.238Z,5.72
2023-04-07T13:04:32.249Z,6.15
2023-04-07T13:06:59.576Z,6.15
2023-04-07T13:09:26.294Z,5.68
2023-04-07T13:11:52.899Z,4.85
2023-04-07T13:14:19.458Z,4.10
2023-04-07T13:16:46.233Z,4.93
2023-04-07T13:19:13.047Z,6.97
2023-04-07T13:24:08.878Z,6.53
2023-04-07T13:26:35.409Z,4.78
2023-04-07T13:29:02.044Z,5.03
2023-04-07T13:31:28.603Z,6.28
2023-04-07T13:33:55.170Z,7.35
2023-04-07T13:36:23.292Z,5.90
2023-04-07T13:38:50.228Z,6.75
2023-04-07T13:41:16.782Z,9.95
2023-04-07T13:43:43.251Z,9.70
2023-04-07T13:46:27.158Z,6.30
2023-04-07T13:48:54.412Z,6.72
2023-04-07T13:51:21.531Z,15.52
2023-04-07T13:53:48.234Z,5.07
2023-04-07T13:56:15.408Z,7.07
2023-04-07T13:58:41.902Z,6.53
2023-04-07T14:01:08.539Z,6.50
2023-04-07T14:03:35.394Z,7.78
2023-04-07T14:06:02.728Z,10.13
2023-04-07T14:08:29.262Z,4.32
2023-04-07T14:10:55.893Z,7.07
2023-04-07T14:13:23.037Z,5.07
2023-04-07T14:15:50.410Z,8.65
2023-04-07T14:18:19.370Z,3.58
2023-04-07T14:23:12.596Z,6.60
2023-04-07T14:25:40.999Z,6.97
2023-04-07T14:28:08.061Z,6.65
2023-04-07T14:30:38.734Z,6.10
2023-04-07T14:33:05.738Z,5.38
2023-04-07T14:35:32.415Z,9.57
2023-04-07T14:37:59.112Z,7.05
2023-04-07T14:40:25.861Z,4.72
2023-04-07T14:45:21.289Z,6.18
2023-04-07T14:47:47.736Z,7.03
2023-04-07T14:50:14.310Z,7.25
2023-04-07T14:52:40.836Z,9.98
2023-04-07T14:55:07.832Z,7.60
2023-04-07T14:57:34.378Z,6.00
2023-04-07T15:00:00.837Z,6.43
2023-04-07T15:02:29.359Z,9.07
2023-04-07T15:04:56.050Z,6.57
2023-04-07T15:07:22.524Z,8.85
2023-04-07T15:09:48.980Z,6.88
2023-04-07T15:12:15.584Z,5.97
2023-04-07T15:14:42.080Z,7.40
2023-04-07T15:17:11.038Z,7.90
2023-04-07T15:22:04.045Z,9.90
2023-04-07T15:24:30.689Z,7.10
2023-04-07T15:26:57.083Z,8.02
2023-04-07T15:29:23.571Z,8.10
2023-04-07T15:31:50.340Z,7.88
2023-04-07T15:34:16.868Z,9.00
2023-04-07T15:36:43.450Z,8.00
2023-04-07T15:39:10.159Z,6.63
2023-04-07T15:41:38.013Z,6.35
2023-04-07T15:44:04.640Z,6.20
2023-04-07T15:46:34.140Z,9.18
2023-04-07T15:49:00.711Z,4.78
2023-04-07T15:51:28.802Z,8.25
2023-04-07T15:53:55.382Z,8.85
2023-04-07T15:56:24.596Z,8.02
2023-04-07T15:58:51.088Z,9.55
2023-04-07T16:01:17.600Z,8.38
2023-04-07T16:03:44.181Z,11.05
2023-04-07T16:06:10.983Z,6.95
2023-04-07T16:08:37.369Z,5.78
2023-04-07T16:11:03.886Z,9.75
2023-04-07T16:13:30.454Z,8.85
2023-04-07T16:15:57.376Z,9.02
2023-04-07T16:18:23.997Z,10.68
2023-04-07T16:20:50.422Z,8.95
2023-04-07T16:23:16.865Z,9.60
2023-04-07T16:25:43.292Z,8.60
2023-04-07T16:28:09.993Z,17.05
2023-04-07T16:30:36.488Z,13.27
2023-04-07T16:33:03.270Z,8.27
2023-04-07T16:35:31.760Z,10.80
2023-04-07T16:38:03.846Z,9.50
2023-04-07T16:40:30.739Z,10.25
2023-04-07T16:42:57.157Z,9.75
2023-04-07T16:45:23.666Z,10.07
2023-04-07T16:47:50.509Z,12.77
2023-04-07T16:50:17.512Z,12.43
2023-04-07T16:52:43.938Z,11.77
2023-04-07T16:55:10.642Z,12.68
2023-04-07T16:57:37.077Z,9.82
2023-04-07T17:00:04.489Z,14.57
2023-04-07T17:02:31.210Z,13.40
2023-04-07T17:04:57.799Z,11.85
2023-04-07T17:07:24.258Z,15.15
2023-04-07T17:09:50.735Z,14.38
2023-04-07T17:12:17.266Z,15.93
2023-04-07T17:14:43.808Z,12.82
2023-04-07T17:17:10.531Z,17.40
2023-04-07T17:19:37.056Z,13.88
2023-04-07T17:22:03.498Z,13.20
2023-04-07T17:24:29.988Z,9.88
2023-04-07T17:26:56.506Z,13.32
2023-04-07T17:29:28.711Z,12.95
2023-04-07T17:31:56.577Z,12.98
2023-04-07T17:34:23.358Z,12.77
2023-04-07T17:36:50.790Z,14.93
2023-04-07T17:39:17.716Z,12.68
2023-04-07T17:41:44.374Z,14.77
2023-04-07T17:44:10.829Z,10.55
2023-04-07T17:46:37.586Z,13.02
2023-04-07T17:49:04.049Z,11.48
2023-04-07T17:51:30.606Z,13.73
2023-04-07T17:53:57.743Z,14.50
2023-04-07T17:56:24.577Z,13.02
2023-04-07T17:58:51.070Z,15.38
2023-04-07T18:01:17.903Z,14.02
2023-04-07T18:03:46.044Z,15.73
2023-04-07T18:06:18.732Z,18.00
2023-04-07T18:08:47.159Z,16.58
2023-04-07T18:11:14.139Z,13.95
2023-04-07T18:13:41.057Z,16.27
2023-04-07T18:16:09.435Z,16.65
2023-04-07T18:18:37.951Z,16.52
2023-04-07T18:21:07.889Z,16.40
2023-04-07T18:23:35.035Z,15.95
2023-04-07T18:26:06.336Z,14.65
2023-04-07T18:28:32.820Z,17.88
2023-04-07T18:31:03.798Z,16.88
2023-04-07T18:33:33.254Z,15.02
2023-04-07T18:36:02.298Z,15.65
2023-04-07T18:38:28.729Z,20.17
2023-04-07T18:40:55.330Z,17.60
2023-04-07T18:43:22.140Z,16.13
2023-04-07T18:45:48.678Z,18.88
2023-04-07T18:48:15.738Z,19.58
2023-04-07T18:50:42.336Z,21.02
2023-04-07T18:53:08.779Z,23.15
2023-04-07T18:55:35.633Z,20.35
2023-04-07T18:58:03.722Z,22.17
2023-04-07T19:00:30.508Z,19.48
2023-04-07T19:02:57.194Z,21.35
2023-04-07T19:05:25.808Z,18.60
2023-04-07T19:07:52.485Z,16.48
2023-04-07T19:10:18.957Z,20.85
2023-04-07T19:12:45.417Z,19.90
2023-04-07T19:15:11.837Z,23.50
2023-04-07T19:17:38.776Z,22.80
2023-04-07T19:20:08.423Z,20.20
2023-04-07T19:22:34.904Z,19.35
2023-04-07T19:25:01.428Z,26.65
2023-04-07T19:27:27.971Z,21.45
2023-04-07T19:29:54.424Z,21.85
2023-04-07T19:32:21.029Z,20.52
2023-04-07T19:34:47.456Z,20.38
2023-04-07T19:37:13.842Z,22.50
2023-04-07T19:39:43.017Z,25.70
2023-04-07T19:42:16.681Z,23.67
2023-04-07T19:44:43.202Z,24.02
2023-04-07T19:47:09.685Z,26.25
2023-04-07T19:49:37.537Z,22.25
2023-04-07T19:52:04.258Z,26.50
2023-04-07T19:54:30.772Z,23.25
2023-04-07T19:56:57.870Z,28.05
2023-04-07T19:59:24.328Z,26.67
2023-04-07T20:01:51.811Z,24.50
2023-04-07T20:04:18.440Z,20.85
2023-04-07T20:06:44.853Z,29.58
2023-04-07T20:09:11.452Z,19.40
2023-04-07T20:11:37.923Z,26.15
2023-04-07T20:14:04.384Z,25.45
2023-04-07T20:16:32.280Z,25.63
2023-04-07T20:18:58.860Z,23.55
2023-04-07T20:21:25.799Z,23.10
2023-04-07T20:23:52.252Z,22.33
2023-04-07T20:26:18.669Z,28.88
2023-04-07T20:28:45.309Z,27.67
2023-04-07T20:31:11.797Z,29.42
2023-04-07T20:33:38.239Z,24.70
2023-04-07T20:36:07.692Z,24.33
2023-04-07T20:38:34.779Z,25.45
2023-04-07T20:41:01.688Z,28.95
2023-04-07T20:43:30.728Z,23.90
2023-04-07T20:45:58.000Z,26.05
2023-04-07T20:48:24.585Z,33.47
2023-04-07T20:50:51.737Z,30.25
2023-04-07T20:53:19.253Z,27.10
2023-04-07T20:55:45.826Z,30.35
2023-04-07T20:58:13.542Z,26.48
2023-04-07T21:00:40.548Z,29.05
2023-04-07T21:03:07.362Z,27.70
2023-04-07T21:05:33.967Z,30.05
2023-04-07T21:08:00.881Z,29.33
2023-04-07T21:10:27.391Z,32.00
2023-04-07T21:12:53.897Z,30.85
2023-04-07T21:15:20.424Z,29.60
2023-04-07T21:17:47.061Z,31.20
2023-04-07T21:20:13.636Z,28.58
2023-04-07T21:22:40.211Z,32.08
2023-04-07T21:25:07.151Z,27.02
2023-04-07T21:27:34.043Z,31.58
2023-04-07T21:30:03.310Z,28.58
2023-04-07T21:32:29.823Z,27.17
2023-04-07T21:34:56.261Z,29.85
2023-04-07T21:37:22.998Z,22.83
2023-04-07T21:39:53.058Z,24.63
2023-04-07T21:42:20.180Z,21.35
2023-04-07T21:44:46.728Z,24.25
2023-04-07T21:47:13.156Z,21.70
2023-04-07T21:49:39.689Z,25.05
2023-04-07T21:52:07.042Z,21.85
2023-04-07T21:54:33.564Z,23.42
2023-04-07T21:57:00.867Z,24.10
2023-04-07T21:59:30.165Z,22.85
2023-04-07T22:01:57.266Z,21.73
2023-04-07T22:04:24.063Z,24.67
2023-04-07T22:06:50.627Z,22.77
2023-04-07T22:09:17.111Z,25.58
2023-04-07T22:11:43.685Z,23.38
2023-04-07T22:14:10.282Z,28.30
2023-04-07T22:16:37.095Z,26.95
2023-04-07T22:19:03.723Z,28.58
2023-04-07T22:21:30.752Z,24.75
2023-04-07T22:23:57.208Z,24.65
2023-04-07T22:26:23.657Z,26.13
2023-04-07T22:28:50.471Z,22.08
2023-04-07T22:31:17.213Z,23.92
2023-04-07T22:33:43.972Z,26.92
2023-04-07T22:36:10.428Z,22.58
2023-04-07T22:38:36.942Z,22.63
2023-04-07T22:41:03.387Z,29.15
2023-04-07T22:43:29.850Z,27.52
2023-04-07T22:45:56.265Z,24.50
2023-04-07T22:48:22.718Z,25.50
2023-04-07T22:50:49.237Z,22.23
2023-04-07T22:53:15.756Z,21.92
2023-04-07T22:55:42.193Z,24.38
2023-04-07T22:58:08.664Z,23.52
2023-04-07T23:00:35.206Z,82.20
2023-04-07T23:03:02.001Z,31.83
2023-04-07T23:05:28.599Z,48.45
2023-04-07T23:07:55.080Z,28.10
2023-04-07T23:10:21.704Z,44.22
2023-04-07T23:12:51.445Z,35.80
2023-04-07T23:15:17.837Z,31.05
2023-04-07T23:17:44.284Z,73.65
2023-04-07T23:20:10.994Z,36.75
2023-04-07T23:22:37.988Z,39.85
2023-04-07T23:25:04.953Z,26.45
2023-04-07T23:27:32.006Z,26.88
2023-04-07T23:29:59.025Z,43.03
2023-04-07T23:32:25.642Z,31.15
2023-04-07T23:34:52.127Z,23.70
2023-04-07T23:37:18.519Z,16.27
2023-04-07T23:39:46.486Z,19.25
2023-04-07T23:42:14.469Z,18.15
2023-04-07T23:44:41.030Z,21.02
2023-04-07T23:47:07.480Z,25.92
2023-04-07T23:49:33.884Z,49.55
2023-04-07T23:52:00.819Z,37.22
2023-04-07T23:54:27.586Z,21.48
2023-04-07T23:56:54.016Z,37.03
2023-04-07T23:59:24.736Z,24.58
